Las Vegas, Nevada
Traffic Map
Current Weather Conditions
Las Vegas, Nevada
Clear
Clear
60°
Feels Like: 60°
Wind Chill: 60° Ceiling: Unl
Heat Index: 60° Visibility: 10mi
Dew Point: 30° Wind: 8mph
Humidity: 32% Direction: 270° (W)
Pressure: 29.85in Gusts: 0mph
Raw Report DataKLAS 230356Z 27007KT 10SM CLR 16/M01 A2985 RMK AO2 SLP099 T01561011 $
Traffic Incident Summary
Active as of:
Severity:
Category:
InformationThere was an issue retrieving the traffic information for this location. Please try a different location or try again shortly.
Advertisements
Track Severe Weather on mobile